Time;durP1;ratioP1;P1;durP2;ratioP2;P2;SDS_P1;SDS_P2;PMS_P1;PMS_P2;Temp;Humidity;BMP_temperature;BMP_pressure;BME280_temperature;BME280_humidity;BME280_pressure;Samples;Min_cycle;Max_cycle;Signal;HPM_P1;HPM_P2
2022/11/25 00:01:08;;;;;;;;;5.00;4.00;;;;;12.10;72.76;100734.84;6183726;23;46905;-80
2022/11/25 00:03:34;;;;;;;;;4.00;4.00;;;;;12.04;72.61;100712.94;6158949;23;45420;-78
2022/11/25 00:06:15;;;;;;;;;0.00;0.00;;;;;12.12;72.74;100740.13;6182170;23;45314;-79
2022/11/25 00:08:42;;;;;;;;;5.00;3.67;;;;;12.11;72.70;100726.06;6158448;23;46055;-79
2022/11/25 00:11:09;;;;;;;;;2.25;2.25;;;;;11.99;72.74;100698.91;6158796;23;48195;-79
2022/11/25 00:13:36;;;;;;;;;2.67;2.67;;;;;11.99;72.85;100698.91;6158895;23;45270;-78
2022/11/25 00:16:12;;;;;;;;;3.33;3.00;;;;;12.06;72.83;100724.38;6157513;23;45372;-78
2022/11/25 00:18:38;;;;;;;;;3.33;3.00;;;;;12.08;72.66;100733.13;6157440;23;45299;-79
2022/11/25 00:21:11;;;;;;;;;6.33;4.00;;;;;12.11;72.66;100733.09;6185288;23;45331;-80
2022/11/25 00:23:38;;;;;;;;;3.25;3.25;;;;;12.06;72.68;100733.16;6158163;23;45867;-78
2022/11/25 00:26:15;;;;;;;;;4.00;2.67;;;;;12.10;72.63;100741.91;6183520;23;45229;-78
2022/11/25 00:28:45;;;;;;;;;3.00;3.00;;;;;12.07;72.46;100740.16;6185549;23;45296;-78
2022/11/25 00:31:13;;;;;;;;;6.50;3.00;;;;;12.04;72.79;100736.69;6158118;23;46415;-78
2022/11/25 00:33:39;;;;;;;;;3.00;3.00;;;;;12.02;72.75;100743.75;6158279;23;45577;-78
2022/11/25 00:36:13;;;;;;;;;6.67;2.33;;;;;11.98;72.94;100742.91;6184556;23;45213;-78
2022/11/25 00:38:39;;;;;;;;;4.00;2.00;;;;;11.95;72.72;100739.41;6158699;23;45420;-78
2022/11/25 00:46:32;;;;;;;;;1.67;1.67;;;;;11.81;72.38;100736.84;6184136;23;45436;-78
2022/11/25 00:48:57;;;;;;;;;5.33;2.67;;;;;11.80;72.53;100750.94;6158594;23;45214;-78
2022/11/25 00:51:23;;;;;;;;;1.00;1.00;;;;;11.75;72.44;100747.47;6159738;23;47079;-78
2022/11/25 00:53:48;;;;;;;;;3.75;3.00;;;;;11.67;72.71;100745.75;6158170;23;45578;-78
2022/11/25 00:56:14;;;;;;;;;1.75;1.75;;;;;11.61;72.79;100737.91;6187125;23;45222;-77
2022/11/25 00:58:43;;;;;;;;;3.00;3.00;;;;;11.68;72.79;100758.09;6161218;23;45377;-78
2022/11/25 01:01:09;;;;;;;;;1.33;1.33;;;;;11.64;72.86;100755.47;6187251;23;45409;-78
2022/11/25 01:03:36;;;;;;;;;4.75;2.00;;;;;11.58;72.83;100759.03;6186817;23;45359;-77
2022/11/25 01:06:11;;;;;;;;;2.25;1.25;;;;;11.57;72.80;100761.66;6159865;23;45401;-78
2022/11/25 01:08:37;;;;;;;;;3.50;3.50;;;;;11.57;72.83;100770.44;6186641;23;45372;-78
2022/11/25 01:11:06;;;;;;;;;4.00;2.50;;;;;11.47;72.51;100761.75;6159780;23;47490;-78
2022/11/25 01:13:32;;;;;;;;;2.75;2.00;;;;;11.50;73.01;100775.81;6186522;23;45266;-78
2022/11/25 01:16:01;;;;;;;;;1.50;1.50;;;;;11.49;73.19;100785.44;6186858;23;45414;-78
2022/11/25 01:18:27;;;;;;;;;3.00;2.00;;;;;11.36;72.75;100766.22;6186541;23;45482;-78
2022/11/25 01:20:52;;;;;;;;;4.50;3.00;;;;;11.33;72.97;100775.91;6184122;23;46740;-77
2022/11/25 01:23:18;;;;;;;;;3.00;2.00;;;;;11.39;73.01;100794.34;6187443;23;45269;-77
2022/11/25 01:25:46;;;;;;;;;2.75;1.75;;;;;11.27;73.04;100787.34;6187350;23;45737;-78
2022/11/25 01:28:12;;;;;;;;;3.00;3.00;;;;;11.26;72.93;100788.25;6185240;23;45331;-80
2022/11/25 01:30:38;;;;;;;;;1.00;1.00;;;;;11.30;73.18;100808.41;6159672;23;47464;-79
2022/11/25 01:33:04;;;;;;;;;4.50;2.50;;;;;11.14;73.15;100793.56;6187825;23;45371;-78
2022/11/25 01:35:29;;;;;;;;;4.50;3.00;;;;;11.18;73.77;100809.38;6187045;23;45315;-78
2022/11/25 01:37:54;;;;;;;;;3.33;2.00;;;;;11.17;73.67;100806.72;6187090;23;45268;-80
2022/11/25 01:40:20;;;;;;;;;2.75;1.25;;;;;11.14;73.66;100823.44;6186758;23;46366;-77
2022/11/25 01:42:46;;;;;;;;;3.00;2.00;;;;;11.17;73.63;100831.34;6159784;23;45384;-79
2022/11/25 01:45:36;;;;;;;;;2.75;2.25;;;;;11.17;73.77;100838.34;6186541;23;45446;-80
2022/11/25 01:48:11;;;;;;;;;3.00;2.00;;;;;11.14;73.82;100839.25;6159959;23;45403;-79
2022/11/25 01:50:38;;;;;;;;;2.00;2.00;;;;;11.12;73.84;100838.41;6184391;23;48268;-77
2022/11/25 01:53:07;;;;;;;;;3.00;3.00;;;;;11.05;74.20;100831.38;6159880;23;45393;-79
2022/11/25 01:55:36;;;;;;;;;0.33;0.33;;;;;11.03;73.94;100812.94;6160525;23;45259;-80
2022/11/25 01:58:15;;;;;;;;;3.67;1.67;;;;;11.08;74.12;100847.19;6186587;23;45175;-80
2022/11/25 02:00:49;;;;;;;;;3.33;3.33;;;;;11.06;74.20;100848.94;6186589;23;45473;-80
2022/11/25 02:03:43;;;;;;;;;2.50;2.50;;;;;11.03;74.32;100847.19;6186651;23;45698;-78
2022/11/25 02:06:20;;;;;;;;;3.25;3.25;;;;;11.04;74.57;100845.47;6148638;23;45353;-80
2022/11/25 02:08:53;;;;;;;;;6.00;5.00;;;;;10.96;74.19;100845.47;6160047;23;46210;-80
2022/11/25 02:11:21;;;;;;;;;2.75;2.00;;;;;10.99;74.37;100853.38;6159537;23;46608;-79
2022/11/25 02:13:50;;;;;;;;;5.50;5.50;;;;;10.91;74.46;100851.66;6160261;23;45920;-78
2022/11/25 02:16:16;;;;;;;;;4.00;2.50;;;;;10.85;74.46;100847.25;6185742;23;45190;-78
2022/11/25 02:18:41;;;;;;;;;3.00;3.00;;;;;10.74;74.50;100839.38;6159123;23;45308;-78
2022/11/25 02:21:07;;;;;;;;;4.00;2.25;;;;;10.91;74.67;100870.09;6160257;23;46757;-79
2022/11/25 02:23:52;;;;;;;;;4.25;3.00;;;;;10.79;74.78;100856.06;6159630;23;45352;-79
2022/11/25 02:26:18;;;;;;;;;2.00;2.00;;;;;10.82;74.74;100870.97;6184407;23;45138;-79
2022/11/25 02:28:44;;;;;;;;;3.25;3.25;;;;;10.72;74.76;100846.44;6186563;23;45347;-79
2022/11/25 02:31:09;;;;;;;;;4.00;2.00;;;;;10.75;74.86;100870.13;6160322;23;47025;-79
2022/11/25 02:33:35;;;;;;;;;5.00;3.75;;;;;10.76;74.58;100876.25;6162547;23;45388;-79
2022/11/25 02:36:08;;;;;;;;;3.00;1.75;;;;;10.78;74.79;100888.53;6187191;23;45391;-79
2022/11/25 02:38:44;;;;;;;;;5.50;2.25;;;;;10.82;74.79;100890.31;6189305;23;45320;-78
2022/11/25 02:41:15;;;;;;;;;3.00;3.00;;;;;10.82;75.06;100897.31;6189475;23;45575;-78
2022/11/25 02:43:40;;;;;;;;;4.00;3.00;;;;;10.80;74.98;100904.34;6161621;23;45223;-79
2022/11/25 02:46:09;;;;;;;;;2.75;1.75;;;;;10.79;74.99;100900.81;6189337;23;45221;-78
2022/11/25 02:48:36;;;;;;;;;2.67;2.67;;;;;10.76;74.70;100899.97;6187562;23;45372;-78
2022/11/25 02:51:03;;;;;;;;;4.75;2.75;;;;;10.82;74.95;100915.75;6162440;23;48304;-78
2022/11/25 02:53:29;;;;;;;;;4.75;3.25;;;;;10.70;74.39;100892.94;6163030;23;45978;-78
2022/11/25 02:55:54;;;;;;;;;6.00;3.75;;;;;10.76;74.96;100916.63;6162730;23;45135;-78
2022/11/25 02:58:20;;;;;;;;;4.25;2.25;;;;;10.78;74.85;100919.28;6162633;23;45166;-78
2022/11/25 03:00:46;;;;;;;;;3.50;2.25;;;;;10.64;74.64;100892.06;6189289;23;46017;-78
2022/11/25 03:03:12;;;;;;;;;3.00;3.00;;;;;10.64;75.01;100911.41;6189132;23;45622;-78
2022/11/25 03:05:37;;;;;;;;;3.75;3.75;;;;;10.70;74.85;100921.91;6189505;23;45229;-78
2022/11/25 03:08:03;;;;;;;;;2.75;2.75;;;;;10.67;75.09;100914.03;6189312;23;45272;-79
2022/11/25 03:10:29;;;;;;;;;4.00;3.00;;;;;10.64;74.97;100908.78;6187334;23;47261;-78
2022/11/25 03:12:54;;;;;;;;;1.00;1.00;;;;;10.69;74.83;100924.53;6189253;23;45256;-78
2022/11/25 03:15:20;;;;;;;;;2.00;2.00;;;;;10.63;74.76;100919.28;6162159;23;45301;-77
2022/11/25 03:17:46;;;;;;;;;8.00;3.25;;;;;10.59;74.89;100923.69;6189427;23;45448;-79
2022/11/25 03:20:12;;;;;;;;;1.50;1.50;;;;;10.66;74.80;100938.59;6188663;23;45312;-78
2022/11/25 03:22:38;;;;;;;;;4.25;3.00;;;;;10.51;74.75;100928.09;6189230;23;45275;-78
2022/11/25 03:25:04;;;;;;;;;2.33;2.00;;;;;10.55;74.98;100937.72;6162494;23;45174;-78
2022/11/25 03:27:29;;;;;;;;;1.00;1.00;;;;;10.57;74.63;100946.50;6188832;23;45511;-78
2022/11/25 03:29:55;;;;;;;;;3.00;1.00;;;;;10.52;74.76;100943.00;6188537;23;46178;-78
2022/11/25 03:32:20;;;;;;;;;2.25;2.25;;;;;10.55;74.70;100953.50;6189232;23;45119;-78
2022/11/25 03:34:45;;;;;;;;;2.00;1.00;;;;;10.53;74.68;100961.44;6161784;23;45579;-78
2022/11/25 03:37:11;;;;;;;;;2.50;2.50;;;;;10.55;74.63;100964.91;6162067;23;45830;-79
2022/11/25 03:39:36;;;;;;;;;3.00;3.00;;;;;10.56;74.71;100973.72;6189169;23;45260;-77
2022/11/25 03:42:02;;;;;;;;;5.50;4.00;;;;;10.46;74.65;100964.94;6160957;23;45237;-78
2022/11/25 03:44:27;;;;;;;;;4.25;3.25;;;;;10.47;74.68;100971.06;6160161;23;45201;-78
2022/11/25 03:46:53;;;;;;;;;4.75;3.25;;;;;10.42;74.90;100965.78;6160056;23;45456;-78
2022/11/25 03:49:20;;;;;;;;;4.50;2.25;;;;;10.42;74.78;100965.78;6187216;23;45391;-78
2022/11/25 03:51:46;;;;;;;;;4.00;2.75;;;;;10.54;74.93;100992.13;6185133;23;45409;-78
2022/11/25 03:54:11;;;;;;;;;3.00;3.00;;;;;10.55;74.32;100995.63;6187068;23;45335;-78
2022/11/25 03:56:36;;;;;;;;;3.00;2.50;;;;;10.45;74.84;100975.44;6184650;23;45407;-78
2022/11/25 03:59:02;;;;;;;;;3.50;2.25;;;;;10.44;74.83;100986.84;6186959;23;45432;-78
2022/11/25 04:01:27;;;;;;;;;4.25;3.00;;;;;10.43;74.76;100985.13;6160259;23;45259;-78
2022/11/25 04:03:53;;;;;;;;;4.00;3.00;;;;;10.41;74.89;100985.09;6187371;23;45673;-78
2022/11/25 04:06:20;;;;;;;;;2.75;2.00;;;;;10.43;74.80;100993.00;6187195;23;45160;-78
2022/11/25 04:08:46;;;;;;;;;2.00;2.00;;;;;10.49;74.98;101009.66;6160216;23;47927;-79
2022/11/25 04:11:11;;;;;;;;;4.00;3.25;;;;;10.41;74.81;100990.38;6160478;23;45231;-78
2022/11/25 04:13:37;;;;;;;;;5.00;3.25;;;;;10.47;75.19;101013.19;6187167;23;45110;-79
2022/11/25 04:16:02;;;;;;;;;3.00;2.50;;;;;10.52;74.83;101016.69;6186871;23;45489;-78
2022/11/25 04:18:28;;;;;;;;;5.75;4.00;;;;;10.50;75.18;101019.31;6186976;23;45343;-79
2022/11/25 04:20:53;;;;;;;;;5.50;4.50;;;;;10.49;74.60;101020.19;6159671;23;45660;-78
2022/11/25 04:23:19;;;;;;;;;2.50;2.50;;;;;10.34;75.20;100996.50;6187071;23;45248;-78
2022/11/25 04:25:44;;;;;;;;;5.50;4.00;;;;;10.36;75.17;101005.28;6187168;23;45345;-78
2022/11/25 04:28:10;;;;;;;;;3.25;3.00;;;;;10.37;75.36;101015.81;6186941;23;45565;-78
2022/11/25 04:30:36;;;;;;;;;3.25;3.25;;;;;10.38;75.13;101019.31;6186828;23;45413;-79
2022/11/25 04:33:01;;;;;;;;;4.50;2.25;;;;;10.42;75.46;101033.34;6187350;23;45316;-79
2022/11/25 04:35:27;;;;;;;;;2.50;2.50;;;;;10.46;75.56;101046.53;6160171;23;45515;-78
2022/11/25 04:37:54;;;;;;;;;5.50;4.50;;;;;10.37;75.39;101030.69;6187114;23;46231;-78
2022/11/25 04:40:20;;;;;;;;;3.00;3.00;;;;;10.37;75.40;101033.34;6160373;23;45354;-78
2022/11/25 04:42:48;;;;;;;;;3.33;2.33;;;;;10.31;75.64;101028.06;6188036;23;45154;-79
2022/11/25 04:45:16;;;;;;;;;4.00;3.00;;;;;10.44;75.58;101050.03;6159822;23;45383;-78
2022/11/25 04:47:42;;;;;;;;;3.50;3.50;;;;;10.37;75.64;101054.38;6159927;23;46978;-78
2022/11/25 04:50:13;;;;;;;;;8.25;4.00;;;;;10.30;75.48;101042.13;6186103;23;45177;-78
2022/11/25 04:52:38;;;;;;;;;4.25;3.75;;;;;10.28;75.56;101051.75;6159728;23;45396;-79
2022/11/25 04:55:04;;;;;;;;;5.75;4.25;;;;;10.29;75.47;101059.66;6185914;23;45380;-79
2022/11/25 04:57:30;;;;;;;;;4.75;3.75;;;;;10.40;75.53;101079.84;6159869;23;47097;-79
2022/11/25 04:59:55;;;;;;;;;3.75;3.75;;;;;10.30;75.66;101065.78;6186424;23;45289;-78
2022/11/25 05:02:23;;;;;;;;;4.75;3.00;;;;;10.32;75.46;101070.19;6160116;23;45313;-79
2022/11/25 05:04:50;;;;;;;;;3.50;3.50;;;;;10.26;75.65;101062.22;6186659;23;45113;-79
2022/11/25 05:07:18;;;;;;;;;2.75;1.75;;;;;10.26;75.49;101069.25;6187128;23;45281;-78
2022/11/25 05:09:43;;;;;;;;;5.25;4.00;;;;;10.26;75.73;101077.13;6186646;23;45351;-78
2022/11/25 05:12:14;;;;;;;;;4.75;3.75;;;;;10.22;75.60;101078.03;6187165;23;45367;-78
2022/11/25 05:14:39;;;;;;;;;9.00;8.50;;;;;10.27;75.63;101086.81;6159577;23;45372;-78
2022/11/25 05:17:11;;;;;;;;;4.00;4.00;;;;;10.29;76.03;101099.13;6186768;23;45251;-78
2022/11/25 05:19:37;;;;;;;;;4.00;3.50;;;;;10.29;75.83;101101.75;6159262;23;45390;-78
2022/11/25 05:22:02;;;;;;;;;4.00;3.00;;;;;10.22;75.63;101105.19;6160142;23;45326;-79
2022/11/25 05:24:28;;;;;;;;;5.75;4.50;;;;;10.19;75.87;101094.69;6186844;23;45208;-78
2022/11/25 05:26:53;;;;;;;;;5.00;2.00;;;;;10.20;75.76;101111.34;6186996;23;45650;-78
2022/11/25 05:29:18;;;;;;;;;4.50;4.25;;;;;10.24;75.79;101128.91;6184705;23;45282;-78
2022/11/25 05:31:44;;;;;;;;;10.25;4.50;;;;;10.13;75.90;101113.94;6160091;23;45155;-78
2022/11/25 05:34:09;;;;;;;;;5.50;4.50;;;;;10.19;75.84;101128.88;6184600;23;45447;-79
2022/11/25 05:36:35;;;;;;;;;5.50;5.00;;;;;10.21;75.96;101134.13;6159048;23;47003;-78
2022/11/25 05:39:01;;;;;;;;;5.75;4.00;;;;;10.10;75.77;101127.09;6160229;23;45220;-78
2022/11/25 05:41:26;;;;;;;;;5.00;4.00;;;;;10.02;76.06;101115.63;6187087;23;45221;-78
2022/11/25 05:43:52;;;;;;;;;7.25;5.00;;;;;10.01;76.03;101123.53;6187142;23;45503;-78
2022/11/25 05:46:18;;;;;;;;;4.75;4.75;;;;;10.08;76.13;101135.84;6186570;23;45499;-78
2022/11/25 05:48:43;;;;;;;;;5.50;4.00;;;;;10.07;76.17;101141.97;6186770;23;45459;-78
2022/11/25 05:51:09;;;;;;;;;4.00;3.00;;;;;10.03;75.98;101138.44;6186407;23;45222;-78
2022/11/25 05:53:35;;;;;;;;;8.25;4.00;;;;;9.97;76.28;101138.44;6186914;23;45185;-78
2022/11/25 05:56:05;;;;;;;;;4.75;4.50;;;;;9.95;75.94;101142.78;6186675;23;46223;-78
2022/11/25 05:58:32;;;;;;;;;3.50;3.50;;;;;9.90;76.23;101141.88;6159601;23;45864;-79
2022/11/25 06:00:57;;;;;;;;;3.75;3.75;;;;;9.92;76.05;101133.13;6186645;23;45283;-79
2022/11/25 06:03:27;;;;;;;;;7.25;5.75;;;;;10.02;76.33;101160.34;6159588;23;45436;-79
2022/11/25 06:05:59;;;;;;;;;5.25;5.25;;;;;9.85;76.23;101135.72;6182699;23;47783;-79
2022/11/25 06:08:26;;;;;;;;;6.75;4.00;;;;;10.00;76.21;101163.88;6186130;23;45288;-78
2022/11/25 06:10:51;;;;;;;;;5.50;3.75;;;;;9.92;76.33;101162.06;6186579;23;45241;-78
2022/11/25 06:13:18;;;;;;;;;5.50;4.00;;;;;9.93;75.99;101171.69;6186488;23;45529;-78
2022/11/25 06:15:44;;;;;;;;;3.25;2.25;;;;;9.96;76.16;101175.22;6186318;23;45202;-79
2022/11/25 06:18:11;;;;;;;;;6.25;3.50;;;;;9.84;75.98;101169.03;6186270;23;45255;-78
2022/11/25 06:20:38;;;;;;;;;5.00;4.25;;;;;9.91;76.42;101178.69;6186431;23;45182;-78
2022/11/25 06:23:03;;;;;;;;;7.00;4.25;;;;;9.78;76.17;101165.47;6184708;23;45446;-78
2022/11/25 06:25:29;;;;;;;;;10.00;7.25;;;;;9.94;76.14;101191.00;6186532;23;46164;-79
2022/11/25 06:27:55;;;;;;;;;5.00;3.00;;;;;9.85;76.09;101178.66;6186528;23;45312;-78
2022/11/25 06:30:21;;;;;;;;;13.25;4.75;;;;;9.84;76.00;101181.31;6159529;23;45333;-78
2022/11/25 06:32:46;;;;;;;;;7.75;5.00;;;;;9.84;75.98;101186.56;6187225;23;45335;-78
2022/11/25 06:35:12;;;;;;;;;9.00;6.25;;;;;9.89;76.06;101196.25;6184626;23;46447;-78
2022/11/25 06:37:38;;;;;;;;;6.25;5.50;;;;;9.83;75.81;101190.91;6185485;23;45263;-78
2022/11/25 06:40:04;;;;;;;;;4.75;4.50;;;;;9.82;75.73;101199.69;6185531;23;45160;-79
2022/11/25 06:42:30;;;;;;;;;4.75;3.50;;;;;9.81;76.04;101195.31;6184281;23;45318;-78
2022/11/25 06:44:55;;;;;;;;;13.25;7.50;;;;;9.78;75.81;101194.41;6184268;23;46460;-79
2022/11/25 06:47:23;;;;;;;;;10.25;6.00;;;;;9.82;75.53;101198.81;6158428;23;45367;-78
2022/11/25 06:49:48;;;;;;;;;5.75;4.50;;;;;9.79;75.78;101194.41;6158701;23;45400;-81
2022/11/25 06:52:14;;;;;;;;;9.75;6.00;;;;;9.78;75.58;101199.66;6184158;23;45336;-80
2022/11/25 06:54:40;;;;;;;;;8.00;4.50;;;;;9.81;75.71;101211.09;6186336;23;46056;-80
2022/11/25 06:57:09;;;;;;;;;7.50;5.75;;;;;9.69;75.65;101195.22;6186248;23;45292;-80
2022/11/25 06:59:35;;;;;;;;;5.50;5.00;;;;;9.83;75.56;101216.34;6185141;23;45551;-79
2022/11/25 07:02:02;;;;;;;;;9.50;5.75;;;;;9.71;75.66;101207.50;6185913;23;45478;-81
2022/11/25 07:04:28;;;;;;;;;8.00;5.00;;;;;9.63;75.85;101196.06;6158665;23;48139;-80
2022/11/25 07:06:53;;;;;;;;;5.50;4.50;;;;;9.62;75.68;101198.66;6184016;23;45360;-80
2022/11/25 07:09:21;;;;;;;;;8.25;6.00;;;;;9.66;75.58;101208.34;6158943;23;45628;-83
2022/11/25 07:11:47;;;;;;;;;3.75;3.50;;;;;9.73;76.00;101225.94;6186304;23;45343;-82
2022/11/25 07:14:16;;;;;;;;;5.75;3.75;;;;;9.75;75.72;101232.06;6185940;23;45193;-82
2022/11/25 07:16:44;;;;;;;;;5.00;4.00;;;;;9.53;75.40;101204.72;6158591;23;45237;-82
2022/11/25 07:19:11;;;;;;;;;9.25;5.00;;;;;9.62;75.54;101219.69;6187324;23;45236;-82
2022/11/25 07:21:37;;;;;;;;;5.00;3.75;;;;;9.67;75.50;101236.38;6160027;23;45497;-80
2022/11/25 07:24:05;;;;;;;;;5.25;3.75;;;;;9.74;75.59;101248.72;6184580;23;47410;-82
2022/11/25 07:26:34;;;;;;;;;4.25;3.00;;;;;9.74;75.43;101248.72;6160110;23;45208;-82
2022/11/25 07:29:02;;;;;;;;;4.50;3.75;;;;;9.65;75.56;101239.00;6189010;23;45211;-82
2022/11/25 07:31:34;;;;;;;;;5.50;4.50;;;;;9.61;75.45;101233.72;6160227;23;45191;-81
2022/11/25 07:34:12;;;;;;;;;6.25;4.75;;;;;9.68;75.40;101241.66;6187410;23;46130;-80
2022/11/25 07:36:38;;;;;;;;;6.50;3.50;;;;;9.65;75.49;101244.28;6159540;23;45398;-82
2022/11/25 07:39:08;;;;;;;;;3.25;2.75;;;;;9.67;75.39;101249.53;6187486;23;45238;-79
2022/11/25 07:41:34;;;;;;;;;6.00;4.00;;;;;9.77;75.40;101268.91;6185162;23;45312;-80
2022/11/25 07:44:02;;;;;;;;;6.00;5.00;;;;;9.75;75.53;101268.88;6159966;23;46860;-79
2022/11/25 07:46:33;;;;;;;;;6.50;6.50;;;;;9.84;75.14;101279.47;6159550;23;45402;-79
2022/11/25 07:49:03;;;;;;;;;4.50;4.50;;;;;9.91;75.36;101290.91;6185178;23;45350;-79
2022/11/25 07:51:31;;;;;;;;;6.25;6.00;;;;;9.87;75.35;101284.75;6186384;23;45110;-80
2022/11/25 07:53:59;;;;;;;;;5.00;5.00;;;;;9.79;75.04;101275.94;6184974;23;47126;-80
2022/11/25 07:56:25;;;;;;;;;5.75;5.75;;;;;9.87;75.21;101302.28;6187296;23;45409;-80
2022/11/25 07:58:51;;;;;;;;;7.50;4.00;;;;;9.93;75.26;101311.09;6187874;23;45379;-79
2022/11/25 08:01:18;;;;;;;;;5.75;3.25;;;;;10.02;75.14;101331.31;6161008;23;45231;-80
2022/11/25 08:03:45;;;;;;;;;8.25;5.00;;;;;10.05;74.76;101334.00;6159892;23;47219;-79
2022/11/25 08:06:13;;;;;;;;;11.25;5.00;;;;;10.07;75.11;101337.50;6159890;23;45221;-81
2022/11/25 08:08:40;;;;;;;;;11.00;6.00;;;;;10.01;75.04;101333.97;6186880;23;45318;-80
2022/11/25 08:11:13;;;;;;;;;11.00;8.25;;;;;9.98;74.83;101319.03;6184857;23;45330;-81
2022/11/25 08:13:40;;;;;;;;;9.75;4.00;;;;;10.07;74.85;101340.13;6186433;23;46020;-80
2022/11/25 08:16:06;;;;;;;;;8.75;6.25;;;;;10.06;74.84;101343.66;6159588;23;45302;-80
2022/11/25 08:18:32;;;;;;;;;6.50;5.25;;;;;10.14;74.66;101351.59;6159903;23;45346;-80
2022/11/25 08:20:59;;;;;;;;;10.50;7.50;;;;;10.21;74.61;101358.69;6186659;23;45569;-80
2022/11/25 08:23:25;;;;;;;;;6.50;4.50;;;;;10.21;74.44;101355.16;6186439;23;45181;-80
2022/11/25 08:25:50;;;;;;;;;6.50;5.75;;;;;10.20;74.47;101366.56;6186577;23;45174;-81
2022/11/25 08:28:15;;;;;;;;;5.25;5.25;;;;;10.25;74.46;101378.88;6186616;23;45177;-83
2022/11/25 08:30:41;;;;;;;;;8.25;4.50;;;;;10.12;74.33;101356.84;6186392;23;45192;-81
2022/11/25 08:33:06;;;;;;;;;5.00;5.00;;;;;10.14;74.31;101357.75;6159297;23;47156;-81
2022/11/25 08:35:36;;;;;;;;;6.00;6.00;;;;;10.22;74.07;101372.72;6186497;23;45192;-81
2022/11/25 08:38:04;;;;;;;;;5.50;5.50;;;;;10.26;74.05;101380.63;6184569;23;45341;-80
2022/11/25 08:40:31;;;;;;;;;6.50;6.00;;;;;10.23;74.14;101382.38;6159377;23;45431;-82
2022/11/25 08:42:57;;;;;;;;;4.25;3.25;;;;;10.26;74.05;101391.16;6185967;23;45303;-81
2022/11/25 08:45:22;;;;;;;;;7.00;6.50;;;;;10.37;73.95;101404.44;6158736;23;45214;-80
2022/11/25 08:47:48;;;;;;;;;7.00;6.00;;;;;10.32;73.95;101396.53;6186399;23;45456;-82
2022/11/25 08:50:14;;;;;;;;;6.75;6.00;;;;;10.48;74.00;101417.69;6185733;23;45270;-82
2022/11/25 08:52:40;;;;;;;;;4.25;2.25;;;;;10.52;73.96;101422.09;6158939;23;47913;-82
2022/11/25 08:55:06;;;;;;;;;7.25;5.75;;;;;10.41;73.98;101398.34;6159347;23;45283;-82
2022/11/25 08:57:31;;;;;;;;;9.25;6.50;;;;;10.58;73.66;101430.94;6186770;23;45419;-82
2022/11/25 08:59:57;;;;;;;;;11.75;7.50;;;;;10.55;73.50;101417.72;6185933;23;45273;-82
2022/11/25 09:02:22;;;;;;;;;10.75;8.25;;;;;10.69;73.61;101444.19;6159293;23;47073;-82
2022/11/25 09:04:48;;;;;;;;;7.00;7.00;;;;;10.61;73.72;101409.00;6159488;23;45384;-82
2022/11/25 09:07:13;;;;;;;;;10.00;5.25;;;;;10.74;73.32;101428.41;6186526;23;45173;-81
2022/11/25 09:09:38;;;;;;;;;11.25;6.50;;;;;10.79;72.93;101435.44;6186648;23;45179;-82
2022/11/25 09:12:04;;;;;;;;;10.25;7.00;;;;;10.95;72.87;101462.78;6186247;23;45330;-81
2022/11/25 09:14:30;;;;;;;;;8.25;6.00;;;;;10.91;73.03;101452.22;6186030;23;45177;-82
2022/11/25 09:16:55;;;;;;;;;10.75;7.00;;;;;10.99;72.45;101459.31;6184267;23;45377;-82
2022/11/25 09:19:22;;;;;;;;;11.25;8.50;;;;;11.03;72.69;101465.47;6159292;23;45199;-82
2022/11/25 09:21:47;;;;;;;;;7.75;7.00;;;;;10.97;72.64;101466.31;6185812;23;45212;-82
2022/11/25 09:24:13;;;;;;;;;8.00;7.00;;;;;10.91;72.39;101454.88;6186254;23;45207;-81
2022/11/25 09:26:39;;;;;;;;;8.25;6.00;;;;;11.00;72.04;101471.59;6186309;23;45310;-81
2022/11/25 09:29:07;;;;;;;;;4.50;3.50;;;;;10.92;71.98;101460.13;6183991;23;45403;-81
2022/11/25 09:31:35;;;;;;;;;10.25;6.75;;;;;10.90;72.07;101459.22;6153903;23;47742;-79
2022/11/25 09:34:07;;;;;;;;;4.00;4.00;;;;;11.03;72.38;101483.91;6157167;23;45330;-79
2022/11/25 09:36:33;;;;;;;;;5.75;3.75;;;;;10.86;72.20;101462.72;6185573;23;45363;-79
2022/11/25 09:38:58;;;;;;;;;8.00;4.00;;;;;10.95;71.67;101491.75;6158987;23;45499;-80
2022/11/25 09:47:43;;;;;;;;;5.75;3.00;;;;;11.04;72.19;101518.19;6186124;23;45265;-79
2022/11/25 09:50:27;;;;;;;;;6.50;4.75;;;;;11.06;71.87;101520.81;6158126;23;45370;-79
2022/11/25 09:53:20;;;;;;;;;7.50;7.00;;;;;11.09;71.71;101523.47;6188685;23;46291;-78
2022/11/25 09:55:52;;;;;;;;;6.50;4.75;;;;;11.10;71.95;101529.63;6185624;23;45446;-79
2022/11/25 09:58:52;;;;;;;;;4.00;3.50;;;;;11.20;71.97;101531.44;6186811;23;45434;-79
2022/11/25 10:01:26;;;;;;;;;5.50;4.50;;;;;11.30;71.84;101538.53;6103224;23;45387;-78
2022/11/25 10:03:57;;;;;;;;;4.75;3.75;;;;;11.45;71.38;101541.25;6186214;23;46354;-78
2022/11/25 10:06:50;;;;;;;;;4.00;4.00;;;;;11.45;71.22;101516.66;6158825;23;45265;-77
2022/11/25 10:09:21;;;;;;;;;5.75;4.25;;;;;11.66;71.01;101542.25;6182624;23;45212;-78
2022/11/25 10:11:55;;;;;;;;;5.25;5.25;;;;;11.81;70.80;101544.94;6185405;23;46112;-78
2022/11/25 10:14:34;;;;;;;;;4.75;4.00;;;;;11.86;70.70;101537.09;6158168;23;46068;-78
2022/11/25 10:17:08;;;;;;;;;4.25;4.25;;;;;12.04;70.55;101557.38;6158525;23;45906;-79
2022/11/25 10:19:55;;;;;;;;;6.00;3.75;;;;;12.18;69.95;101566.22;6186039;23;45263;-77
2022/11/25 10:22:31;;;;;;;;;5.75;5.00;;;;;12.35;69.84;101564.53;6159101;23;45247;-77
2022/11/25 10:25:01;;;;;;;;;8.50;5.75;;;;;13.11;70.54;101564.56;6159534;23;46372;-78
2022/11/25 10:27:40;;;;;;;;;4.50;4.00;;;;;13.79;69.37;101570.59;6183921;23;45639;-77
2022/11/25 10:30:14;;;;;;;;;4.25;3.25;;;;;14.07;67.53;101564.31;6183713;23;45193;-78
2022/11/25 10:32:45;;;;;;;;;7.25;6.00;;;;;14.28;66.16;101579.22;6185438;23;45168;-79
2022/11/25 10:35:25;;;;;;;;;8.00;6.75;;;;;14.47;65.78;101577.31;6185306;23;45321;-79
2022/11/25 10:37:54;;;;;;;;;5.00;4.00;;;;;14.93;65.56;101577.00;6158495;23;45288;-78
2022/11/25 10:40:20;;;;;;;;;3.33;2.33;;;;;15.54;65.48;101564.94;6185441;23;45243;-78
2022/11/25 10:42:45;;;;;;;;;7.67;4.67;;;;;16.60;64.49;101581.28;6184907;23;45383;-78
2022/11/25 10:45:11;;;;;;;;;6.00;5.67;;;;;17.57;63.02;101573.44;6158261;23;48385;-78
2022/11/25 10:48:02;;;;;;;;;10.00;6.00;;;;;18.76;60.48;101576.25;6183436;23;45435;-78
2022/11/25 10:50:39;;;;;;;;;4.00;2.33;;;;;19.65;58.98;101579.28;6185785;23;45147;-78
2022/11/25 10:53:07;;;;;;;;;4.33;4.33;;;;;20.40;56.68;101590.44;6184762;23;45348;-78
2022/11/25 10:55:34;;;;;;;;;8.00;6.33;;;;;20.80;55.12;101575.84;6186844;23;45326;-77
2022/11/25 10:58:24;;;;;;;;;5.33;3.33;;;;;21.43;54.25;101585.28;6159687;23;45160;-77
2022/11/25 11:01:01;;;;;;;;;4.00;4.00;;;;;21.78;52.08;101583.13;6161735;23;45298;-77
2022/11/25 11:03:27;;;;;;;;;6.67;4.67;;;;;22.19;51.19;101588.78;6187019;23;45341;-78
2022/11/25 11:05:53;;;;;;;;;4.67;3.33;;;;;22.48;49.70;101589.41;6186933;23;46339;-76
2022/11/25 11:08:36;;;;;;;;;3.00;2.00;;;;;22.87;48.79;101589.63;6159908;23;45116;-76
2022/11/25 11:11:22;;;;;;;;;5.00;3.33;;;;;23.23;48.17;101591.69;6187154;23;45279;-76
2022/11/25 11:13:49;;;;;;;;;4.33;2.00;;;;;23.64;47.16;101602.47;6159716;23;45425;-77
2022/11/25 11:16:28;;;;;;;;;4.33;3.67;;;;;24.17;45.95;101605.44;6186242;23;46072;-77
2022/11/25 11:18:55;;;;;;;;;7.00;3.00;;;;;24.57;45.62;101600.88;6159689;23;45286;-79
2022/11/25 11:21:24;;;;;;;;;7.00;4.67;;;;;24.76;43.98;101605.34;6184697;23;45375;-76
2022/11/25 11:23:52;;;;;;;;;4.00;3.00;;;;;25.17;43.27;101611.38;6186534;23;45367;-77
2022/11/25 11:26:23;;;;;;;;;8.00;4.33;;;;;25.61;42.36;101616.28;6159028;23;46148;-76
2022/11/25 11:29:00;;;;;;;;;4.33;2.33;;;;;25.99;41.53;101613.38;6158559;23;45628;-76
2022/11/25 11:31:38;;;;;;;;;7.00;6.33;;;;;26.17;41.05;101606.13;6159951;23;45183;-76
2022/11/25 11:34:29;;;;;;;;;10.00;4.67;;;;;26.63;39.97;101621.59;6186229;23;45419;-77
2022/11/25 11:37:03;;;;;;;;;11.67;7.00;;;;;27.03;39.15;101621.00;6159100;23;46355;-77
2022/11/25 11:39:34;;;;;;;;;4.67;3.67;;;;;27.22;38.45;101628.94;6159832;23;45394;-77
2022/11/25 11:42:44;;;;;;;;;6.00;4.33;;;;;27.34;38.03;101618.34;6182555;23;45373;-80
2022/11/25 11:45:34;;;;;;;;;6.00;4.00;;;;;27.56;37.76;101620.59;6159041;23;45263;-80